createdAt,value
2019-04-21T00:02:01.251Z,82.44
2019-04-21T00:04:43.324Z,81.92
2019-04-21T00:07:22.180Z,82.78
2019-04-21T00:09:53.378Z,83.36
2019-04-21T00:12:17.969Z,85.28
2019-04-21T00:14:43.592Z,86.88
2019-04-21T00:17:07.834Z,87.14
2019-04-21T00:19:35.363Z,85.57
2019-04-21T00:22:16.148Z,85.69
2019-04-21T00:24:44.342Z,85.81
2019-04-21T00:27:20.255Z,85.43
2019-04-21T00:29:51.783Z,84.53
2019-04-21T00:32:20.719Z,83.42
2019-04-21T00:34:32.242Z,82.49
2019-04-21T00:37:12.289Z,81.67
2019-04-21T00:40:01.914Z,81.53
2019-04-21T00:42:19.463Z,81.46
2019-04-21T00:44:51.318Z,81.55
2019-04-21T00:47:25.108Z,81.78
2019-04-21T00:49:53.922Z,81.83
2019-04-21T00:55:18.106Z,81.61
2019-04-21T00:57:38.765Z,81.74
2019-04-21T01:00:10.180Z,81.63
2019-04-21T01:02:43.132Z,81.87
2019-04-21T01:05:11.177Z,82.48
2019-04-21T01:07:36.000Z,82.99
2019-04-21T01:09:58.329Z,83.18
2019-04-21T01:12:37.487Z,83.07
2019-04-21T01:15:14.027Z,83.05
2019-04-21T01:17:38.834Z,84.10
2019-04-21T01:19:59.616Z,85.70
2019-04-21T01:22:13.634Z,87.63
2019-04-21T01:24:45.288Z,88.44
2019-04-21T01:27:22.584Z,89.03
2019-04-21T01:30:08.535Z,89.34
2019-04-21T01:32:35.962Z,89.04
2019-04-21T01:35:05.185Z,89.26
2019-04-21T01:37:39.942Z,89.98
2019-04-21T01:40:08.452Z,90.63
2019-04-21T01:42:32.763Z,90.67
2019-04-21T01:44:58.283Z,90.14
2019-04-21T01:47:25.224Z,89.69
2019-04-21T01:49:54.570Z,89.59
2019-04-21T01:55:18.342Z,89.88
2019-04-21T01:57:52.718Z,89.65
2019-04-21T02:00:14.467Z,89.61
2019-04-21T02:02:59.230Z,88.89
2019-04-21T02:05:31.378Z,89.21
2019-04-21T02:07:56.324Z,90.63
2019-04-21T02:10:34.694Z,92.30
2019-04-21T02:12:56.709Z,94.04
2019-04-21T02:15:32.998Z,95.36
2019-04-21T02:17:59.496Z,95.93
2019-04-21T02:20:20.697Z,96.14
2019-04-21T02:23:13.005Z,96.12
2019-04-21T02:25:31.872Z,97.03
2019-04-21T02:28:04.778Z,97.55
2019-04-21T02:30:55.057Z,97.55
2019-04-21T02:33:08.785Z,97.65
2019-04-21T02:35:58.062Z,97.45
2019-04-21T02:38:11.879Z,97.33
2019-04-21T02:40:47.333Z,96.71
2019-04-21T02:43:13.251Z,96.56
2019-04-21T02:45:58.609Z,96.76
2019-04-21T02:48:09.731Z,97.51
2019-04-21T02:50:43.761Z,98.38
2019-04-21T02:53:12.282Z,98.66
2019-04-21T02:55:36.724Z,98.41
2019-04-21T02:58:18.736Z,97.61
2019-04-21T03:01:12.442Z,96.75
2019-04-21T03:03:41.802Z,96.25
2019-04-21T03:05:58.629Z,96.02
2019-04-21T03:08:43.057Z,96.34
2019-04-21T03:13:42.952Z,96.32
2019-04-21T03:16:09.826Z,95.81
2019-04-21T03:18:38.056Z,95.28
2019-04-21T03:21:16.277Z,94.98
2019-04-21T03:23:38.194Z,94.48
2019-04-21T03:26:12.421Z,94.16
2019-04-21T03:31:21.870Z,94.70
2019-04-21T03:40:57.812Z,96.42
2019-04-21T03:43:56.744Z,96.32
2019-04-21T03:46:15.947Z,96.31
2019-04-21T03:48:51.738Z,97.42
2019-04-21T03:56:27.160Z,97.96
2019-04-21T03:58:55.877Z,97.78
2019-04-21T04:01:38.665Z,98.25
2019-04-21T04:04:20.190Z,98.59
2019-04-21T04:06:56.585Z,98.49
2019-04-21T04:09:31.407Z,98.28
2019-04-21T04:14:23.396Z,99.30
2019-04-21T04:16:58.512Z,99.08
2019-04-21T04:19:18.445Z,99.28
2019-04-21T04:21:56.846Z,99.30
2019-04-21T04:27:02.382Z,98.75
2019-04-21T04:29:20.485Z,97.89
2019-04-21T04:31:42.707Z,97.16
2019-04-21T04:34:22.811Z,95.93
2019-04-21T04:39:36.517Z,95.64
2019-04-21T04:42:04.920Z,95.24
2019-04-21T04:44:39.418Z,95.79
2019-04-21T04:47:05.534Z,97.28
2019-04-21T04:49:39.641Z,97.98
2019-04-21T04:52:07.789Z,98.53
2019-04-21T04:54:43.590Z,98.97
2019-04-21T04:57:08.106Z,99.28
2019-04-21T04:59:35.452Z,99.10
2019-04-21T05:02:00.179Z,99.28
2019-04-21T05:04:35.493Z,99.22
2019-04-21T05:06:56.368Z,99.48
2019-04-21T05:09:21.452Z,99.52
2019-04-21T05:11:56.057Z,98.75
2019-04-21T05:14:23.104Z,98.63
2019-04-21T05:16:57.037Z,97.69
2019-04-21T05:19:20.804Z,95.83
2019-04-21T05:21:48.370Z,93.51
2019-04-21T05:24:15.013Z,90.07
2019-04-21T05:26:43.292Z,87.33
2019-04-21T05:29:10.859Z,86.44
2019-04-21T05:31:54.778Z,85.00
2019-04-21T05:34:27.320Z,83.33
2019-04-21T05:37:12.089Z,83.02
2019-04-21T05:39:37.570Z,80.84
2019-04-21T05:42:01.902Z,79.53
2019-04-21T05:44:53.124Z,79.39
2019-04-21T05:47:22.135Z,78.42
2019-04-21T05:49:48.607Z,77.39
2019-04-21T05:52:08.122Z,74.97
2019-04-21T05:54:49.928Z,74.52
2019-04-21T05:57:11.960Z,73.45
2019-04-21T05:59:46.794Z,73.06
2019-04-21T06:05:14.174Z,73.14
2019-04-21T06:09:57.314Z,70.38
2019-04-21T06:12:18.289Z,70.42
2019-04-21T06:14:49.439Z,69.00
2019-04-21T06:17:28.454Z,67.23
2019-04-21T06:19:49.402Z,66.37
2019-04-21T06:22:13.825Z,66.38
2019-04-21T06:25:11.488Z,66.20
2019-04-21T06:27:24.777Z,66.19
2019-04-21T06:29:50.953Z,66.18
2019-04-21T06:32:30.293Z,65.61
2019-04-21T06:35:08.395Z,65.39
2019-04-21T06:40:03.090Z,63.01
2019-04-21T06:42:18.594Z,61.94
2019-04-21T06:49:48.624Z,60.42
2019-04-21T06:52:42.379Z,58.87
2019-04-21T06:54:56.033Z,58.48
2019-04-21T06:57:21.838Z,59.02
2019-04-21T06:59:49.981Z,57.85
2019-04-21T07:02:36.204Z,57.93
2019-04-21T07:07:18.698Z,57.34
2019-04-21T07:09:52.762Z,56.96
2019-04-21T07:12:18.677Z,57.04
2019-04-21T07:14:49.926Z,56.34
2019-04-21T07:17:24.252Z,55.62
2019-04-21T07:19:57.431Z,55.69
2019-04-21T07:22:24.747Z,54.51
2019-04-21T07:24:50.514Z,54.79
2019-04-21T07:27:22.209Z,54.66
2019-04-21T07:29:56.622Z,53.68
2019-04-21T07:32:14.075Z,54.38
2019-04-21T07:34:51.910Z,54.09
2019-04-21T07:37:18.157Z,54.43
2019-04-21T07:39:45.163Z,53.23
2019-04-21T07:42:14.747Z,52.64
2019-04-21T07:44:40.847Z,52.82
2019-04-21T07:47:20.260Z,51.65
2019-04-21T07:49:57.434Z,49.07
2019-04-21T07:52:23.647Z,50.46
2019-04-21T07:55:07.736Z,50.57
2019-04-21T07:57:18.827Z,50.62
2019-04-21T08:00:06.538Z,49.41
2019-04-21T08:02:23.370Z,47.87
2019-04-21T08:07:31.770Z,51.09
2019-04-21T08:09:51.366Z,51.54
2019-04-21T08:12:20.320Z,49.80
2019-04-21T08:14:50.659Z,49.60
2019-04-21T08:17:23.728Z,49.10
2019-04-21T08:19:48.705Z,50.90
2019-04-21T08:22:30.716Z,48.88
2019-04-21T08:24:56.205Z,50.10
2019-04-21T08:27:25.819Z,50.13
2019-04-21T08:29:51.897Z,49.09
2019-04-21T08:32:26.533Z,48.36
2019-04-21T08:35:14.751Z,49.08
2019-04-21T08:37:24.146Z,48.79
2019-04-21T08:40:05.096Z,47.17
2019-04-21T08:42:25.346Z,48.95
2019-04-21T08:44:53.071Z,47.84
2019-04-21T08:47:26.006Z,48.51
2019-04-21T08:49:55.366Z,47.80
2019-04-21T08:52:45.786Z,47.25
2019-04-21T08:55:12.411Z,47.88
2019-04-21T08:58:08.167Z,48.04
2019-04-21T09:00:51.168Z,48.15
2019-04-21T09:03:14.025Z,47.83
2019-04-21T09:05:45.120Z,48.09
2019-04-21T09:10:45.605Z,47.72
2019-04-21T09:13:10.177Z,47.41
2019-04-21T09:15:41.896Z,47.46
2019-04-21T09:18:10.215Z,47.40
2019-04-21T09:20:46.117Z,47.60
2019-04-21T09:23:18.132Z,46.59
2019-04-21T09:25:46.840Z,46.33
2019-04-21T09:28:14.060Z,47.21
2019-04-21T09:30:24.409Z,47.56
2019-04-21T09:32:56.222Z,47.22
2019-04-21T09:35:23.990Z,47.70
2019-04-21T09:38:00.017Z,45.93
2019-04-21T09:40:30.078Z,45.25
2019-04-21T09:42:59.253Z,44.58
2019-04-21T09:45:23.030Z,45.08
2019-04-21T09:48:00.884Z,45.73
2019-04-21T09:50:22.304Z,45.65
2019-04-21T09:52:57.674Z,44.97
2019-04-21T09:55:23.274Z,44.16
2019-04-21T09:57:55.722Z,43.82
2019-04-21T10:00:25.299Z,42.98
2019-04-21T10:02:59.983Z,41.17
2019-04-21T10:05:21.441Z,41.69
2019-04-21T10:07:50.754Z,40.00
2019-04-21T10:10:19.258Z,37.47
2019-04-21T10:12:47.800Z,39.17
2019-04-21T10:15:16.543Z,39.54
2019-04-21T10:17:49.649Z,38.28
2019-04-21T10:20:18.325Z,37.01
2019-04-21T10:22:46.871Z,40.42
2019-04-21T10:25:16.550Z,40.71
2019-04-21T10:27:45.210Z,40.30
2019-04-21T10:30:16.204Z,36.84
2019-04-21T10:32:44.600Z,36.83
2019-04-21T10:35:13.065Z,36.05
2019-04-21T10:37:49.825Z,35.55
2019-04-21T10:40:11.767Z,35.21
2019-04-21T10:42:40.444Z,35.15
2019-04-21T10:45:10.652Z,35.49
2019-04-21T10:47:39.072Z,36.27
2019-04-21T10:50:08.773Z,35.62
2019-04-21T10:52:55.224Z,35.89
2019-04-21T10:55:40.432Z,36.11
2019-04-21T10:58:16.097Z,35.29
2019-04-21T11:00:46.251Z,35.05
2019-04-21T11:03:33.193Z,35.14
2019-04-21T11:06:03.306Z,36.08
2019-04-21T11:08:37.538Z,35.24
2019-04-21T11:11:01.711Z,36.05
2019-04-21T11:13:30.735Z,36.15
2019-04-21T11:15:59.337Z,36.33
2019-04-21T11:18:28.227Z,36.48
2019-04-21T11:20:56.435Z,36.83
2019-04-21T11:23:25.085Z,35.53
2019-04-21T11:25:53.914Z,35.11
2019-04-21T11:28:22.917Z,34.01
2019-04-21T11:30:51.260Z,34.14
2019-04-21T11:33:19.526Z,35.42
2019-04-21T11:35:48.931Z,36.37
2019-04-21T11:38:28.370Z,34.73
2019-04-21T11:40:55.845Z,34.14
2019-04-21T11:43:24.231Z,34.90
2019-04-21T11:45:52.676Z,35.19
2019-04-21T11:48:24.107Z,34.95
2019-04-21T11:50:53.203Z,33.88
2019-04-21T11:53:21.508Z,33.41
2019-04-21T11:55:51.822Z,33.68
2019-04-21T11:58:19.839Z,34.79
2019-04-21T12:00:53.814Z,34.62
2019-04-21T12:03:22.244Z,34.29
2019-04-21T12:05:51.214Z,34.94
2019-04-21T12:08:27.386Z,35.12
2019-04-21T12:10:49.615Z,34.57
2019-04-21T12:13:18.302Z,34.79
2019-04-21T12:15:47.159Z,32.76
2019-04-21T12:18:15.646Z,32.08
2019-04-21T12:20:45.085Z,33.14
2019-04-21T12:23:14.309Z,35.32
2019-04-21T12:25:45.315Z,33.47
2019-04-21T12:28:14.226Z,33.30
2019-04-21T12:30:43.399Z,33.65
2019-04-21T12:33:16.221Z,35.29
2019-04-21T12:35:45.925Z,36.17
2019-04-21T12:38:14.236Z,35.34
2019-04-21T12:40:42.497Z,35.22
2019-04-21T12:43:10.764Z,34.59
2019-04-21T12:45:39.997Z,35.34
2019-04-21T12:48:08.475Z,35.64
2019-04-21T12:50:36.730Z,36.67
2019-04-21T12:53:05.403Z,36.17
2019-04-21T12:55:37.437Z,36.38
2019-04-21T12:58:03.635Z,36.28
2019-04-21T13:00:33.255Z,35.99
2019-04-21T13:03:01.785Z,36.93
2019-04-21T13:05:29.992Z,36.78
2019-04-21T13:07:59.497Z,35.83
2019-04-21T13:10:28.419Z,36.42
2019-04-21T13:12:56.809Z,36.54
2019-04-21T13:15:25.480Z,36.33
2019-04-21T13:17:54.231Z,36.02
2019-04-21T13:20:23.315Z,36.27
2019-04-21T13:22:52.396Z,35.86
2019-04-21T13:25:20.673Z,35.69
2019-04-21T13:27:49.247Z,35.84
2019-04-21T13:30:18.080Z,35.33
2019-04-21T13:32:47.053Z,36.08
2019-04-21T13:35:17.084Z,35.70
2019-04-21T13:37:45.817Z,35.40
2019-04-21T13:40:51.757Z,36.43
2019-04-21T13:43:06.082Z,35.42
2019-04-21T13:45:34.180Z,36.74
2019-04-21T13:48:02.517Z,36.29
2019-04-21T13:50:31.163Z,36.47
2019-04-21T13:53:00.687Z,37.19
2019-04-21T13:55:29.699Z,37.15
2019-04-21T13:57:58.840Z,37.19
2019-04-21T14:00:27.524Z,36.03
2019-04-21T14:02:56.506Z,36.88
2019-04-21T14:05:24.734Z,36.55
2019-04-21T14:07:54.372Z,35.96
2019-04-21T14:10:23.886Z,35.26
2019-04-21T14:12:52.173Z,36.15
2019-04-21T14:15:22.019Z,35.70
2019-04-21T14:17:50.895Z,34.53
2019-04-21T14:20:19.826Z,35.67
2019-04-21T14:22:48.098Z,34.65
2019-04-21T14:25:17.451Z,35.77
2019-04-21T14:27:49.553Z,33.88
2019-04-21T14:30:18.579Z,34.71
2019-04-21T14:32:47.625Z,34.81
2019-04-21T14:35:16.719Z,33.54
2019-04-21T14:37:45.042Z,33.54
2019-04-21T14:40:20.679Z,33.27
2019-04-21T14:42:45.124Z,34.54
2019-04-21T14:45:28.229Z,34.31
2019-04-21T14:47:58.949Z,34.60
2019-04-21T14:50:44.348Z,35.46
2019-04-21T14:53:17.942Z,35.10
2019-04-21T14:55:46.552Z,35.79
2019-04-21T14:58:15.044Z,35.40
2019-04-21T15:00:52.985Z,34.62
2019-04-21T15:03:21.677Z,34.56
2019-04-21T15:05:51.435Z,35.61
2019-04-21T15:08:19.792Z,35.68
2019-04-21T15:10:49.353Z,35.48
2019-04-21T15:13:17.679Z,34.76
2019-04-21T15:15:45.949Z,36.29
2019-04-21T15:18:14.597Z,35.55
2019-04-21T15:20:45.654Z,35.28
2019-04-21T15:23:12.868Z,36.09
2019-04-21T15:25:41.935Z,36.12
2019-04-21T15:28:11.599Z,35.59
2019-04-21T15:30:40.774Z,35.67
2019-04-21T15:33:10.566Z,36.27
2019-04-21T15:35:39.126Z,35.80
2019-04-21T15:38:09.746Z,35.22
2019-04-21T15:40:46.754Z,35.56
2019-04-21T15:43:08.493Z,36.64
2019-04-21T15:45:37.139Z,35.21
2019-04-21T15:48:05.932Z,35.60
2019-04-21T15:50:35.589Z,36.15
2019-04-21T15:53:05.709Z,36.63
2019-04-21T15:55:41.375Z,36.01
2019-04-21T15:58:12.281Z,35.43
2019-04-21T16:00:42.686Z,36.00
2019-04-21T16:03:10.992Z,37.21
2019-04-21T16:05:40.584Z,37.40
2019-04-21T16:08:10.134Z,35.87
2019-04-21T16:10:45.278Z,37.16
2019-04-21T16:13:09.800Z,37.23
2019-04-21T16:15:38.682Z,37.70
2019-04-21T16:18:06.924Z,37.77
2019-04-21T16:20:35.517Z,37.75
2019-04-21T16:23:04.552Z,39.06
2019-04-21T16:25:32.893Z,42.36
2019-04-21T16:28:01.520Z,43.69
2019-04-21T16:30:30.839Z,45.20
2019-04-21T16:32:59.881Z,44.68
2019-04-21T16:35:29.458Z,45.85
2019-04-21T16:37:59.491Z,45.71
2019-04-21T16:40:39.869Z,46.57
2019-04-21T16:42:58.345Z,46.83
2019-04-21T16:45:26.789Z,47.00
2019-04-21T16:47:55.971Z,47.28
2019-04-21T16:50:25.795Z,46.84
2019-04-21T16:53:12.258Z,47.33
2019-04-21T16:55:42.231Z,47.12
2019-04-21T16:58:18.163Z,47.14
2019-04-21T17:00:52.360Z,47.51
2019-04-21T17:03:14.722Z,47.97
2019-04-21T17:05:43.070Z,48.04
2019-04-21T17:08:11.350Z,48.27
2019-04-21T17:10:40.408Z,47.68
2019-04-21T17:13:09.925Z,47.24
2019-04-21T17:15:53.101Z,47.69
2019-04-21T17:18:25.578Z,48.03
2019-04-21T17:20:46.743Z,47.73
2019-04-21T17:23:09.500Z,47.56
2019-04-21T17:25:39.198Z,48.16
2019-04-21T17:28:07.935Z,49.02
2019-04-21T17:30:36.709Z,49.03
2019-04-21T17:33:05.663Z,49.18
2019-04-21T17:35:35.160Z,49.18
2019-04-21T17:38:03.991Z,49.38
2019-04-21T17:40:33.795Z,50.14
2019-04-21T17:43:07.609Z,50.14
2019-04-21T17:45:33.012Z,50.49
2019-04-21T17:48:06.048Z,50.00
2019-04-21T17:50:49.566Z,50.15
2019-04-21T17:53:38.514Z,50.46
2019-04-21T17:56:22.107Z,49.91
2019-04-21T17:58:52.422Z,49.87
2019-04-21T18:04:01.406Z,49.52
2019-04-21T18:06:21.006Z,49.47
2019-04-21T18:08:54.843Z,49.87
2019-04-21T18:11:14.883Z,50.11
2019-04-21T18:13:33.050Z,50.06
2019-04-21T18:16:09.662Z,50.98
2019-04-21T18:18:32.616Z,50.96
2019-04-21T18:21:06.940Z,51.85
2019-04-21T18:23:49.903Z,52.92
2019-04-21T18:26:15.803Z,52.91
2019-04-21T18:28:36.928Z,53.87
2019-04-21T18:31:07.082Z,53.70
2019-04-21T18:33:40.374Z,54.63
2019-04-21T18:36:15.851Z,55.35
2019-04-21T18:39:13.972Z,53.87
2019-04-21T18:41:30.348Z,54.98
2019-04-21T18:44:38.827Z,54.82
2019-04-21T18:47:06.906Z,54.93
2019-04-21T18:49:21.611Z,55.77
2019-04-21T18:52:02.807Z,55.65
2019-04-21T18:54:45.820Z,56.27
2019-04-21T18:57:08.144Z,56.87
2019-04-21T18:59:37.216Z,57.34
2019-04-21T19:02:06.487Z,57.99
2019-04-21T19:04:33.890Z,57.43
2019-04-21T19:07:13.159Z,57.85
2019-04-21T19:10:20.583Z,58.18
2019-04-21T19:12:23.159Z,57.68
2019-04-21T19:14:46.372Z,57.54
2019-04-21T19:17:56.923Z,57.68
2019-04-21T19:19:54.650Z,57.81
2019-04-21T19:22:15.267Z,57.90
2019-04-21T19:24:54.879Z,58.54
2019-04-21T19:27:25.161Z,58.96
2019-04-21T19:30:01.626Z,58.73
2019-04-21T19:32:21.188Z,59.49
2019-04-21T19:34:34.784Z,59.50
2019-04-21T19:37:09.166Z,59.84
2019-04-21T19:39:43.388Z,60.13
2019-04-21T19:42:12.762Z,60.54
2019-04-21T19:44:47.297Z,60.73
2019-04-21T19:47:25.647Z,60.82
2019-04-21T19:49:51.362Z,60.42
2019-04-21T19:52:06.585Z,60.58
2019-04-21T19:54:36.388Z,60.73
2019-04-21T19:57:00.903Z,60.43
2019-04-21T19:59:36.589Z,60.75
2019-04-21T20:02:00.287Z,61.62
2019-04-21T20:04:34.407Z,61.37
2019-04-21T20:07:10.328Z,61.69
2019-04-21T20:09:47.764Z,61.44
2019-04-21T20:12:18.845Z,61.90
2019-04-21T20:15:04.794Z,62.96
2019-04-21T20:17:11.222Z,63.13
2019-04-21T20:19:29.893Z,63.56
2019-04-21T20:21:58.976Z,63.25
2019-04-21T20:24:30.315Z,63.29
2019-04-21T20:27:06.828Z,63.56
2019-04-21T20:29:44.513Z,64.08
2019-04-21T20:32:20.047Z,65.06
2019-04-21T20:34:46.097Z,65.41
2019-04-21T20:37:14.806Z,66.29
2019-04-21T20:39:35.087Z,66.16
2019-04-21T20:42:12.766Z,65.17
2019-04-21T20:44:40.306Z,64.70
2019-04-21T20:47:07.434Z,64.53
2019-04-21T20:49:36.553Z,65.30
2019-04-21T20:52:17.264Z,65.88
2019-04-21T20:54:45.532Z,65.96
2019-04-21T20:57:11.502Z,66.17
2019-04-21T20:59:40.906Z,65.82
2019-04-21T21:02:11.923Z,66.70
2019-04-21T21:04:32.669Z,66.18
2019-04-21T21:07:28.225Z,66.61
2019-04-21T21:09:41.191Z,66.92
2019-04-21T21:14:45.111Z,68.73
2019-04-21T21:17:25.359Z,68.76
2019-04-21T21:19:47.302Z,68.01
2019-04-21T21:22:09.744Z,67.18
2019-04-21T21:24:47.421Z,67.14
2019-04-21T21:27:14.228Z,66.55
2019-04-21T21:29:45.584Z,66.55
2019-04-21T21:34:47.252Z,68.97
2019-04-21T21:37:21.562Z,67.54
2019-04-21T21:39:53.767Z,66.80
2019-04-21T21:42:01.833Z,65.99
2019-04-21T21:44:30.219Z,66.29
2019-04-21T21:47:06.450Z,66.47
2019-04-21T21:49:43.975Z,66.47
2019-04-21T21:52:07.032Z,66.26
2019-04-21T21:54:27.716Z,66.53
2019-04-21T21:56:56.403Z,66.37
2019-04-21T21:59:28.368Z,66.55
2019-04-21T22:01:56.212Z,67.01
2019-04-21T22:04:28.210Z,67.22
2019-04-21T22:07:02.529Z,67.62
2019-04-21T22:09:26.154Z,67.88
2019-04-21T22:11:57.821Z,67.07
2019-04-21T22:14:31.380Z,66.75
2019-04-21T22:17:11.065Z,67.25
2019-04-21T22:19:48.911Z,67.15
2019-04-21T22:22:15.656Z,68.16
2019-04-21T22:24:41.498Z,68.04
2019-04-21T22:26:54.838Z,68.04
2019-04-21T22:29:23.506Z,68.88
2019-04-21T22:31:52.671Z,68.48
2019-04-21T22:34:27.640Z,68.11
2019-04-21T22:37:01.246Z,68.20
2019-04-21T22:39:43.441Z,68.72
2019-04-21T22:42:01.816Z,68.90
2019-04-21T22:44:22.697Z,69.40
2019-04-21T22:47:02.928Z,69.73
2019-04-21T22:49:22.320Z,69.84
2019-04-21T22:51:52.097Z,69.79
2019-04-21T22:54:30.155Z,69.10
2019-04-21T22:56:59.171Z,69.09
2019-04-21T22:59:22.898Z,68.98
2019-04-21T23:01:52.652Z,69.28
2019-04-21T23:04:21.064Z,69.53
2019-04-21T23:06:58.292Z,69.83
2019-04-21T23:09:20.117Z,69.98
2019-04-21T23:11:51.527Z,70.39
2019-04-21T23:14:19.031Z,70.47
2019-04-21T23:16:52.123Z,71.70
2019-04-21T23:19:34.807Z,71.65
2019-04-21T23:22:02.442Z,71.32
2019-04-21T23:24:42.163Z,70.83
2019-04-21T23:27:00.833Z,70.88
2019-04-21T23:29:50.406Z,71.01
2019-04-21T23:32:03.510Z,71.15
2019-04-21T23:34:23.163Z,70.13
2019-04-21T23:36:53.218Z,70.82
2019-04-21T23:39:23.636Z,71.26
2019-04-21T23:41:51.620Z,72.04
2019-04-21T23:44:20.112Z,72.85
2019-04-21T23:46:51.144Z,72.45
2019-04-21T23:49:31.953Z,72.57
2019-04-21T23:51:52.901Z,72.50
2019-04-21T23:54:17.456Z,72.22
2019-04-21T23:56:47.692Z,72.41
2019-04-21T23:59:17.602Z,73.27
